Haileyville, OK (74546)

5:01 AM CDT on August 01, 2014 (GMT -0500)
Kinkead Hills (KOKMCALE2) Elev 808 ft | 34.90 °N, 95.73 °W | Change Station
Active Advisory: Areal Flood Warning Active Notice: Record Report

Current weather conditions updated 6 minutes ago

Overcast
Overcast
65.1 °F
Feels Like 65.1 °F
N
0.0
Wind Variable Wind from North

Today is forecast to be Much Warmer than yesterday.

Today
High -- | Low -- °F
--% Chance of Precip.
Yesterday
High -- | Low -- °F
Precip. -- in
6:32 AM 8:24 PM
Waxing Crescent, 25% visible
Pressure 30.04 in
Visibility 7.0 miles
Clouds Mostly Cloudy 1900 ft
Mostly Cloudy 3400 ft
Overcast 6000 ft
Dew Point 63 °F
Humidity 91%
Rainfall 0.00 in
Snow Depth Not available.
UV 0 out of 12
Pollen .70 out of 12
Air Quality Not available.
Flu Activity Not available.
METAR KMLC 010953Z AUTO 05003KT 7SM BKN019 BKN034 OVC060 19/18 A3006 RMK AO2 SLP171 T01940183

More Conditions Fewer Conditions

Pressure 30.04 in
Visibility 7.0 miles
Clouds Mostly Cloudy 1900 ft
Mostly Cloudy 3400 ft
Overcast 6000 ft
Dew Point 63 °F
Humidity 91%
Rainfall 0.00 in
Snow Depth Not available.
UV 0 out of 12
Pollen .70 out of 12
Air Quality Not available.
Flu Activity Not available.
METAR KMLC 010953Z AUTO 05003KT 7SM BKN019 BKN034 OVC060 19/18 A3006 RMK AO2 SLP171 T01940183

More Conditions Fewer Conditions

10-Day Weather Forecast

Almanac

Astronomy

Aug. 01, 2014 Rise Set
Actual Time 6:32 AM CDT 8:24 PM CDT
Civil Twilight 6:04 AM CDT 8:52 PM CDT
Nautical Twilight 5:30 AM CDT 9:25 PM CDT
Astronomical Twilight 4:54 AM CDT 10:01 PM CDT
Moon 11:42 AM CDT 11:25 PM CDT
Length of Visible Light 14h 48m
Length of Day
13h 52m
Tomorrow will be 1m 39s shorter.
Waxing Crescent, 25% of the Moon is Illuminated
Today
Waxing Crescent
Aug 3
First Quarter
Aug 10
Full
Aug 17
Last Quarter
Aug 25
New

Today's Extremes

State Highs State Lows

Community

WunderPhotos

Upload Photos

1,739,530 photos uploaded!

Nearby

Snow Depth

Station Depth Elevation
No new snow has been reported.

Earthquake Activity

City Distance Mag. Time & Date
Yale, Oklahoma 114 miles 3.2 5:19 PM CDT
2014-07-27
Perry, Oklahoma 146 miles 2.8 4:28 AM CDT
2014-07-27
Minimum magnitude displayed is 2.5.

Coastal Water Temperatures

Place Temperature
No Stations Reporting

Nearby Weather Stations

Station Location Temp. Dew Point Humidity Wind Precip. Elev Updated Type
Kinkead Hills, McAlester, OK 65.1 °F 63 °F 91% North  at  0.0 mph - / hr 808 ft 4:55 AM CDT Normal
MesoWest NAVY , Savanna, OK 63 °F - - North  at  - 0.00 in / hr 711 ft 2:50 AM CDT MADIS
Arrowhead Estates, Canadian, OK 67.5 °F 66 °F 95% ENE  at  0.0 mph 0.00 in / hr 682 ft 5:01 AM CDT Normal

Show More Stations Show Fewer Stations